KIBM

Kimball Municipal / Robert E Arraj Field Airport

Kimball, Nebraska, USA
METAR KIBM 212035Z AUTO 35007KT 10SM CLR 23/M05 A3010 RMK AO2 T02281046
Observed Flight Rules
Oct-21 @ 20:35 UTC (34 minutes ago) Visual Flight Rules
Wind Visibility Clouds
350° at 7 knots 10 miles
  • Clear skies
Temperatures Readings
Current 23°C / 73°F
Dewpoint -5°C / 23°F
Humidity 15%
Altimeter 30.1" Hg
Pressure 1019 hPa
Elevation 1501
METAR KIBM 212035Z AUTO 35007KT 10SM CLR 23/M05 A3010 RMK AO2 T02281046
Observed Flight Rules
Oct-21 @ 20:35 UTC
(34 minutes ago)
VFR
Wind Visibility
350° at 7 knots 10 miles
Clouds
  • Clear skies
Temperature Dewpoint
23°C / 73°F -5°C / 23°F
Humidity Altimeter Pressure
15% 30.1" Hg 1019 hPa